Time;durP1;ratioP1;P1;durP2;ratioP2;P2;SDS_P1;SDS_P2;PMS_P1;PMS_P2;Temp;Humidity;BMP_temperature;BMP_pressure;BME280_temperature;BME280_humidity;BME280_pressure;Samples;Min_cycle;Max_cycle;Signal;HPM_P1;HPM_P2
2022/04/12 00:01:49;;;;;;;;;6.75;6.75;;;;;14.94;58.58;99792.91;5077097;27;45347;-64
2022/04/12 00:04:14;;;;;;;;;6.25;5.00;;;;;14.92;58.83;99794.84;5077350;28;45449;-62
2022/04/12 00:06:39;;;;;;;;;8.25;7.00;;;;;14.91;58.92;99793.13;5076682;27;45337;-62
2022/04/12 00:09:05;;;;;;;;;17.75;16.50;;;;;14.89;59.02;99785.28;5076697;27;45409;-62
2022/04/12 00:11:30;;;;;;;;;5.75;5.75;;;;;14.85;58.89;99777.69;5076808;28;45234;-63
2022/04/12 00:13:55;;;;;;;;;6.75;4.75;;;;;14.81;59.26;99776.19;5076923;27;45203;-61
2022/04/12 00:16:21;;;;;;;;;6.50;4.25;;;;;14.80;59.30;99779.78;5076448;27;46579;-62
2022/04/12 00:19:04;;;;;;;;;6.25;5.00;;;;;14.71;59.12;99776.84;5076721;27;45247;-63
2022/04/12 00:21:35;;;;;;;;;5.00;3.25;;;;;14.67;59.82;99780.63;5076750;27;45177;-62
2022/04/12 00:24:02;;;;;;;;;6.25;5.25;;;;;14.68;59.44;99790.25;5076614;27;45412;-63
2022/04/12 00:26:28;;;;;;;;;3.25;3.25;;;;;14.65;59.66;99789.63;5076200;27;46428;-62
2022/04/12 00:28:53;;;;;;;;;5.00;5.00;;;;;14.64;59.67;99786.13;5076428;27;45251;-62
2022/04/12 00:31:19;;;;;;;;;6.75;4.00;;;;;14.61;59.71;99797.78;5076343;27;45568;-63
2022/04/12 00:33:44;;;;;;;;;5.00;5.00;;;;;14.59;59.80;99801.50;5076896;27;45377;-61
2022/04/12 00:36:09;;;;;;;;;4.00;4.00;;;;;14.49;59.88;99790.72;5075941;27;45410;-61
2022/04/12 00:38:35;;;;;;;;;5.25;5.25;;;;;14.50;60.24;99795.06;5076050;27;45266;-62
2022/04/12 00:41:02;;;;;;;;;6.75;5.25;;;;;14.46;60.18;99798.88;5076147;27;45326;-62
2022/04/12 00:43:30;;;;;;;;;7.00;5.00;;;;;14.41;60.39;99788.59;5074568;27;45595;-62
2022/04/12 00:46:00;;;;;;;;;5.00;5.00;;;;;14.34;60.43;99782.03;5075718;27;46048;-65
2022/04/12 00:48:27;;;;;;;;;5.25;4.25;;;;;14.31;60.49;99780.44;5075799;27;45195;-65
2022/04/12 00:50:53;;;;;;;;;6.75;5.75;;;;;14.24;60.58;99776.50;5075918;27;45337;-63
2022/04/12 00:53:19;;;;;;;;;5.75;4.75;;;;;14.22;61.00;99774.94;5076442;27;45410;-65
2022/04/12 00:55:45;;;;;;;;;6.50;5.00;;;;;14.15;60.98;99763.91;5076170;27;46118;-61
2022/04/12 00:58:11;;;;;;;;;5.00;4.25;;;;;14.13;60.97;99769.31;5076012;27;45484;-64
2022/04/12 01:00:37;;;;;;;;;6.75;5.00;;;;;14.09;61.20;99765.19;5074879;27;45476;-65
2022/04/12 01:03:03;;;;;;;;;5.25;3.50;;;;;14.06;61.45;99770.69;5076371;27;45258;-66
2022/04/12 01:05:29;;;;;;;;;5.00;5.00;;;;;14.03;61.44;99777.03;5074043;27;46432;-65
2022/04/12 01:07:55;;;;;;;;;4.00;4.00;;;;;14.00;61.51;99776.41;5075805;27;45437;-65
2022/04/12 01:10:22;;;;;;;;;5.00;5.00;;;;;13.97;61.61;99769.50;5076006;27;45365;-62
2022/04/12 01:12:50;;;;;;;;;5.50;5.50;;;;;13.89;61.83;99758.59;5076127;27;45415;-61
2022/04/12 01:15:18;;;;;;;;;7.25;6.25;;;;;13.90;61.92;99764.75;5075704;27;45398;-65
2022/04/12 01:17:45;;;;;;;;;4.00;4.00;;;;;13.84;61.92;99753.66;5075863;27;45356;-63
2022/04/12 01:20:12;;;;;;;;;5.25;5.25;;;;;13.81;62.17;99750.34;5075686;27;45454;-60
2022/04/12 01:22:55;;;;;;;;;4.00;4.00;;;;;13.80;62.10;99749.50;5075961;28;45421;-63
2022/04/12 01:25:22;;;;;;;;;7.25;5.00;;;;;13.75;62.35;99756.03;5074033;28;47212;-65
2022/04/12 01:27:47;;;;;;;;;7.00;5.25;;;;;13.74;62.38;99757.81;5075976;27;45483;-64
2022/04/12 01:30:13;;;;;;;;;5.75;5.75;;;;;13.67;62.85;99757.41;5075438;27;45392;-61
2022/04/12 01:32:38;;;;;;;;;7.00;5.25;;;;;13.66;62.97;99768.06;5075162;27;45609;-62
2022/04/12 01:35:04;;;;;;;;;6.00;6.00;;;;;13.61;62.78;99760.44;5075378;27;45348;-65
2022/04/12 01:37:30;;;;;;;;;6.75;6.75;;;;;13.64;62.94;99762.03;5075516;27;45334;-63
2022/04/12 01:39:56;;;;;;;;;4.75;4.50;;;;;13.57;62.96;99748.38;5075655;27;45364;-62
2022/04/12 01:42:21;;;;;;;;;6.00;6.00;;;;;13.56;63.02;99751.97;5074576;27;45421;-61
2022/04/12 01:44:46;;;;;;;;;6.00;6.00;;;;;13.56;63.09;99762.56;5075113;27;46102;-63
2022/04/12 01:47:12;;;;;;;;;5.00;5.00;;;;;13.52;63.34;99759.25;5075886;27;45400;-61
2022/04/12 01:49:37;;;;;;;;;6.25;5.25;;;;;13.47;63.19;99773.72;5075743;27;45727;-60
2022/04/12 01:52:03;;;;;;;;;5.25;5.25;;;;;13.42;63.43;99776.66;5075565;27;45572;-62
2022/04/12 01:54:28;;;;;;;;;4.75;4.75;;;;;13.39;63.37;99782.09;5073813;28;47441;-62
2022/04/12 01:56:54;;;;;;;;;6.00;5.00;;;;;13.34;63.87;99777.13;5075264;27;45326;-61
2022/04/12 01:59:20;;;;;;;;;8.75;5.50;;;;;13.33;63.88;99788.66;5075561;27;45261;-62
2022/04/12 02:01:45;;;;;;;;;4.25;4.25;;;;;13.28;63.80;99781.00;5075223;27;45251;-62
2022/04/12 02:04:10;;;;;;;;;4.00;4.00;;;;;13.26;64.01;99779.44;5074804;27;46427;-63
2022/04/12 02:06:36;;;;;;;;;7.50;6.00;;;;;13.25;63.91;99772.41;5074729;28;45283;-61
2022/04/12 02:09:02;;;;;;;;;5.75;4.75;;;;;13.21;64.25;99779.69;5075125;27;45382;-63
2022/04/12 02:11:27;;;;;;;;;6.75;5.00;;;;;13.17;64.24;99766.78;5075473;28;45515;-65
2022/04/12 02:13:52;;;;;;;;;7.00;5.00;;;;;13.17;64.38;99772.06;5078460;27;46239;-63
2022/04/12 02:16:18;;;;;;;;;7.00;5.75;;;;;13.14;64.45;99773.13;5078700;27;45498;-62
2022/04/12 02:18:43;;;;;;;;;5.00;5.00;;;;;13.08;64.53;99755.88;5078949;27;45337;-62
2022/04/12 02:21:09;;;;;;;;;8.00;6.75;;;;;13.09;64.27;99759.38;5079076;27;45345;-62
2022/04/12 02:23:34;;;;;;;;;5.00;5.00;;;;;13.09;64.95;99757.56;5078724;27;46367;-63
2022/04/12 02:25:59;;;;;;;;;5.75;5.75;;;;;13.08;64.46;99762.97;5078785;27;45451;-60
2022/04/12 02:28:25;;;;;;;;;6.00;6.00;;;;;13.02;64.79;99742.22;5078650;27;45411;-64
2022/04/12 02:30:51;;;;;;;;;3.00;3.00;;;;;13.07;64.46;99748.06;5078778;27;45584;-62
2022/04/12 02:33:16;;;;;;;;;5.25;5.25;;;;;13.07;64.41;99748.06;5077720;27;46075;-64
2022/04/12 02:35:42;;;;;;;;;5.25;4.50;;;;;13.08;64.36;99755.88;5078038;27;45244;-61
2022/04/12 02:38:07;;;;;;;;;5.00;5.00;;;;;13.10;64.74;99753.16;5078376;27;45235;-62
2022/04/12 02:40:33;;;;;;;;;4.00;4.00;;;;;13.07;64.01;99743.63;5078412;27;45191;-62
2022/04/12 02:42:58;;;;;;;;;7.25;5.50;;;;;13.09;64.02;99764.66;5078019;27;45284;-61
2022/04/12 02:45:23;;;;;;;;;5.25;4.75;;;;;13.09;63.76;99764.66;5078444;27;45360;-63
2022/04/12 02:47:49;;;;;;;;;4.75;3.00;;;;;13.09;64.13;99757.56;5111166;27;45375;-62
2022/04/12 02:50:15;;;;;;;;;8.75;6.25;;;;;13.09;63.92;99757.56;5078524;27;45647;-64
2022/04/12 02:52:40;;;;;;;;;5.00;5.00;;;;;13.09;63.98;99772.56;5078199;27;45270;-63
2022/04/12 02:55:06;;;;;;;;;5.50;5.50;;;;;13.08;64.03;99771.72;5093904;27;45340;-67
2022/04/12 02:57:32;;;;;;;;;6.00;5.00;;;;;13.08;63.94;99760.31;5078392;27;45346;-63
2022/04/12 02:59:57;;;;;;;;;5.75;4.00;;;;;13.06;63.71;99756.94;5078661;27;45355;-64
2022/04/12 03:02:22;;;;;;;;;7.75;6.00;;;;;13.09;63.39;99759.38;5078611;27;45486;-66
2022/04/12 03:04:48;;;;;;;;;5.00;5.00;;;;;13.07;63.54;99755.97;5077999;27;45456;-65
2022/04/12 03:07:14;;;;;;;;;7.75;7.25;;;;;13.11;63.44;99754.84;5077962;27;45406;-61
2022/04/12 03:09:40;;;;;;;;;5.00;5.00;;;;;13.09;63.29;99747.00;5078014;27;45618;-62
2022/04/12 03:12:06;;;;;;;;;8.00;4.75;;;;;13.09;63.38;99741.72;5076232;27;47298;-64
2022/04/12 03:14:32;;;;;;;;;4.00;4.00;;;;;13.09;63.47;99740.88;5077428;27;45285;-63
2022/04/12 03:16:57;;;;;;;;;7.75;6.00;;;;;13.07;63.28;99734.84;5077619;27;45177;-64
2022/04/12 03:19:22;;;;;;;;;6.00;6.00;;;;;13.05;63.11;99721.75;5077932;27;45541;-63
2022/04/12 03:21:48;;;;;;;;;6.00;6.00;;;;;13.05;63.26;99721.75;5077240;27;46113;-62
2022/04/12 03:24:13;;;;;;;;;4.25;4.25;;;;;13.03;62.89;99717.53;5076087;27;45128;-62
2022/04/12 03:26:38;;;;;;;;;3.00;3.00;;;;;13.03;62.90;99717.53;5077537;27;45474;-65
2022/04/12 03:29:04;;;;;;;;;7.00;5.50;;;;;13.02;62.69;99715.81;5077381;27;45511;-63
2022/04/12 03:31:29;;;;;;;;;7.00;5.00;;;;;13.02;62.38;99724.56;5076939;28;46624;-65
2022/04/12 03:33:54;;;;;;;;;7.00;5.75;;;;;13.04;62.58;99724.50;5077645;27;45221;-66
2022/04/12 03:36:20;;;;;;;;;2.50;2.50;;;;;13.05;62.43;99729.66;5076927;27;51573;-65
2022/04/12 03:38:48;;;;;;;;;3.75;3.75;;;;;13.02;62.51;99707.91;5077423;27;45531;-64
2022/04/12 03:41:26;;;;;;;;;6.75;5.00;;;;;13.05;62.17;99721.75;5077015;27;46450;-63
2022/04/12 03:43:52;;;;;;;;;6.00;4.50;;;;;13.03;61.80;99715.72;5075251;28;45472;-65
2022/04/12 03:46:18;;;;;;;;;5.50;4.25;;;;;13.05;61.73;99729.66;5076974;28;45402;-61
2022/04/12 03:48:43;;;;;;;;;5.00;3.75;;;;;13.06;61.62;99743.72;5077251;27;45250;-62
2022/04/12 03:51:10;;;;;;;;;6.00;4.00;;;;;13.05;61.25;99736.75;5076666;27;45889;-62
2022/04/12 03:53:37;;;;;;;;;7.50;3.25;;;;;13.07;61.33;99745.41;5076879;28;45262;-66
2022/04/12 03:56:07;;;;;;;;;3.50;3.50;;;;;13.04;60.91;99741.16;5076773;27;45547;-64
2022/04/12 03:58:41;;;;;;;;;4.00;4.00;;;;;13.05;61.14;99734.94;5077143;27;45227;-65
2022/04/12 04:01:07;;;;;;;;;8.00;5.00;;;;;13.08;61.83;99741.84;5076438;27;45778;-66
2022/04/12 04:03:35;;;;;;;;;4.50;4.00;;;;;13.08;61.17;99741.84;5076653;27;45260;-65
2022/04/12 04:06:01;;;;;;;;;6.25;3.50;;;;;13.07;61.07;99732.22;5076804;27;45191;-64
2022/04/12 04:08:27;;;;;;;;;4.75;3.50;;;;;13.09;60.98;99733.81;5075793;27;45588;-64
2022/04/12 04:10:52;;;;;;;;;8.00;5.00;;;;;13.09;61.11;99732.97;5076341;27;46082;-64
2022/04/12 04:13:18;;;;;;;;;3.75;3.75;;;;;13.07;60.65;99727.78;5076435;27;45334;-62
2022/04/12 04:15:45;;;;;;;;;4.75;4.75;;;;;13.04;60.74;99727.13;5076538;28;45335;-63
2022/04/12 04:18:12;;;;;;;;;5.75;3.50;;;;;13.05;60.57;99731.47;5076755;27;45388;-68
2022/04/12 04:20:38;;;;;;;;;4.00;4.00;;;;;13.02;60.55;99734.31;5075993;27;48695;-63
2022/04/12 04:23:03;;;;;;;;;9.00;4.50;;;;;12.98;60.38;99741.56;5076242;27;45255;-64
2022/04/12 04:25:29;;;;;;;;;5.50;4.00;;;;;12.96;60.49;99740.81;5076716;27;45379;-64
2022/04/12 04:27:55;;;;;;;;;5.00;3.50;;;;;12.94;60.52;99746.19;5076727;28;45214;-65
2022/04/12 04:30:21;;;;;;;;;5.00;4.00;;;;;12.93;60.97;99749.78;5076282;27;45301;-66
2022/04/12 04:32:47;;;;;;;;;6.25;3.00;;;;;12.92;60.85;99756.00;5075894;27;45253;-65
2022/04/12 04:35:13;;;;;;;;;4.25;3.00;;;;;12.91;60.93;99756.09;5075890;27;45310;-66
2022/04/12 04:37:47;;;;;;;;;6.00;6.00;;;;;12.88;61.38;99754.50;5076239;27;45526;-62
2022/04/12 04:40:17;;;;;;;;;3.25;3.25;;;;;12.86;60.88;99751.13;5075647;27;45423;-62
2022/04/12 04:42:44;;;;;;;;;4.25;4.25;;;;;12.84;60.95;99758.28;5075594;27;45449;-65
2022/04/12 04:45:14;;;;;;;;;4.50;4.50;;;;;12.80;61.23;99759.44;5076023;27;45342;-64
2022/04/12 04:47:51;;;;;;;;;3.00;3.00;;;;;12.71;60.68;99747.66;5076258;27;45804;-62
2022/04/12 04:50:18;;;;;;;;;2.00;2.00;;;;;12.66;60.91;99763.75;5075730;28;46361;-64
2022/04/12 04:52:44;;;;;;;;;7.75;7.75;;;;;12.62;61.07;99769.31;5075726;27;45355;-64
2022/04/12 04:55:09;;;;;;;;;6.75;5.50;;;;;12.54;61.41;99761.88;5075873;27;45401;-63
2022/04/12 04:57:39;;;;;;;;;5.00;4.00;;;;;12.50;61.15;99776.19;5076184;27;45593;-65
2022/04/12 05:00:06;;;;;;;;;5.25;4.00;;;;;12.42;61.18;99766.97;5091313;27;48032;-67
2022/04/12 05:02:32;;;;;;;;;5.50;3.50;;;;;12.40;61.06;99768.00;5075974;27;45826;-62
2022/04/12 05:04:57;;;;;;;;;4.75;3.75;;;;;12.34;61.31;99771.84;5075900;27;45243;-65
2022/04/12 05:07:26;;;;;;;;;6.00;4.75;;;;;12.33;62.03;99769.31;5076189;27;45637;-66
2022/04/12 05:09:52;;;;;;;;;6.25;5.00;;;;;12.28;61.52;99769.59;5075766;27;45679;-67
2022/04/12 05:12:18;;;;;;;;;5.75;3.75;;;;;12.25;61.82;99778.56;5075528;27;45416;-65
2022/04/12 05:14:43;;;;;;;;;4.25;4.25;;;;;12.23;62.40;99782.19;5091385;27;45303;-63
2022/04/12 05:17:09;;;;;;;;;6.50;4.00;;;;;12.21;61.86;99784.09;5075990;27;45418;-64
2022/04/12 05:19:34;;;;;;;;;4.25;4.25;;;;;12.18;62.24;99787.75;5075365;27;45441;-65
2022/04/12 05:21:59;;;;;;;;;4.00;4.00;;;;;12.17;62.12;99796.59;5075807;27;45395;-65
2022/04/12 05:24:25;;;;;;;;;6.25;6.25;;;;;12.16;62.40;99794.06;5073941;27;45491;-66
2022/04/12 05:26:50;;;;;;;;;7.50;7.50;;;;;12.16;62.81;99807.25;5075853;28;45557;-65
2022/04/12 05:29:16;;;;;;;;;7.75;7.75;;;;;12.17;62.32;99798.38;5075176;27;45384;-65
2022/04/12 05:31:41;;;;;;;;;16.75;16.75;;;;;12.14;62.43;99794.13;5075183;27;45413;-63
2022/04/12 05:34:07;;;;;;;;;24.50;21.75;;;;;12.12;61.95;99798.66;5075081;27;45271;-64
2022/04/12 05:36:32;;;;;;;;;21.75;17.50;;;;;12.16;62.50;99801.97;5075564;27;45556;-65
2022/04/12 05:38:57;;;;;;;;;15.50;15.50;;;;;12.15;62.81;99806.38;5074636;27;46565;-61
2022/04/12 05:41:22;;;;;;;;;17.00;17.00;;;;;12.18;62.74;99794.81;5074750;27;45297;-64
2022/04/12 05:43:48;;;;;;;;;11.50;11.25;;;;;12.20;62.23;99799.06;5074707;27;45427;-64
2022/04/12 05:46:13;;;;;;;;;7.00;5.50;;;;;12.24;62.37;99799.72;5074354;28;45634;-64
2022/04/12 05:48:39;;;;;;;;;6.25;6.25;;;;;12.26;62.40;99798.69;5074759;28;46641;-63
2022/04/12 05:51:04;;;;;;;;;6.25;6.25;;;;;12.33;62.51;99811.53;5090836;27;45770;-64
2022/04/12 05:53:29;;;;;;;;;7.50;6.50;;;;;12.41;62.01;99811.91;5075564;27;45247;-61
2022/04/12 05:55:55;;;;;;;;;12.25;8.00;;;;;12.47;62.42;99815.94;5073443;28;45640;-63
2022/04/12 05:58:20;;;;;;;;;5.00;5.00;;;;;12.52;61.64;99814.75;5074981;27;46330;-63
2022/04/12 06:00:45;;;;;;;;;7.25;7.25;;;;;12.61;61.54;99815.94;5074663;27;45858;-63
2022/04/12 06:03:11;;;;;;;;;8.00;7.25;;;;;12.68;61.54;99821.72;5074848;28;45301;-61
2022/04/12 06:05:36;;;;;;;;;4.25;4.25;;;;;12.74;60.98;99820.50;5075114;27;45373;-64
2022/04/12 06:08:03;;;;;;;;;4.75;3.50;;;;;12.80;61.04;99813.03;5073694;27;47068;-62
2022/04/12 06:10:28;;;;;;;;;4.00;4.00;;;;;12.86;60.70;99825.84;5074703;27;45417;-63
2022/04/12 06:12:54;;;;;;;;;5.50;4.25;;;;;12.92;60.35;99831.69;5074553;27;45336;-64
2022/04/12 06:15:20;;;;;;;;;5.00;5.00;;;;;12.98;60.27;99826.03;5074984;27;45519;-64
2022/04/12 06:17:45;;;;;;;;;7.75;5.50;;;;;13.06;59.97;99825.56;5074512;27;45946;-64
2022/04/12 06:20:14;;;;;;;;;7.50;6.25;;;;;13.15;60.31;99823.19;5074411;27;45377;-63
2022/04/12 06:22:40;;;;;;;;;4.25;4.25;;;;;13.26;59.81;99819.88;5074701;27;45285;-63
2022/04/12 06:25:08;;;;;;;;;6.25;5.00;;;;;13.34;59.60;99806.19;5074976;27;45231;-64
2022/04/12 06:27:37;;;;;;;;;5.50;4.00;;;;;13.46;59.78;99824.88;5074341;27;46830;-64
2022/04/12 06:30:11;;;;;;;;;6.50;6.00;;;;;13.52;59.64;99830.59;5074644;27;45289;-62
2022/04/12 06:32:37;;;;;;;;;5.25;5.25;;;;;13.63;59.04;99829.91;5074272;27;45460;-64
2022/04/12 06:35:04;;;;;;;;;6.00;5.00;;;;;13.67;58.40;99822.59;5074691;28;45339;-66
2022/04/12 06:37:30;;;;;;;;;7.00;7.00;;;;;13.68;58.97;99832.22;5074052;27;45375;-64
2022/04/12 06:39:59;;;;;;;;;5.75;5.75;;;;;13.81;58.59;99853.44;5074231;27;45262;-65
2022/04/12 06:42:26;;;;;;;;;8.50;7.50;;;;;13.85;58.41;99853.13;5074378;27;45431;-65
2022/04/12 06:44:51;;;;;;;;;6.25;6.25;;;;;13.94;58.38;99854.31;5074235;27;45373;-66
2022/04/12 06:47:17;;;;;;;;;6.75;6.75;;;;;14.03;57.93;99866.09;5074503;28;45454;-64
2022/04/12 06:49:44;;;;;;;;;6.00;6.00;;;;;14.11;57.79;99869.06;5074469;27;45487;-64
2022/04/12 06:52:10;;;;;;;;;5.25;5.00;;;;;14.21;57.78;99871.94;5074284;27;45457;-65
2022/04/12 06:54:36;;;;;;;;;5.50;4.75;;;;;14.28;57.20;99865.28;5074932;27;45525;-62
2022/04/12 06:57:01;;;;;;;;;7.00;7.00;;;;;14.38;57.37;99872.63;5074121;27;48757;-62
2022/04/12 06:59:26;;;;;;;;;8.25;4.25;;;;;14.46;56.27;99875.59;5076289;27;45338;-64
2022/04/12 07:01:52;;;;;;;;;7.00;5.00;;;;;14.45;56.22;99882.69;5077956;27;45218;-65
2022/04/12 07:04:17;;;;;;;;;14.75;10.25;;;;;14.49;56.14;99890.41;5077224;27;45448;-62
2022/04/12 07:06:43;;;;;;;;;5.25;5.25;;;;;14.52;55.80;99900.78;5070386;27;45979;-65
2022/04/12 07:09:11;;;;;;;;;7.00;6.50;;;;;14.54;55.78;99907.69;5075474;27;45466;-64
2022/04/12 07:11:36;;;;;;;;;11.25;7.50;;;;;14.56;56.05;99897.84;5076861;27;45546;-65
2022/04/12 07:14:01;;;;;;;;;17.50;13.50;;;;;14.56;55.68;99892.53;5076101;27;45640;-66
2022/04/12 07:16:27;;;;;;;;;7.00;6.00;;;;;14.60;55.57;99909.03;5073912;27;46323;-65
2022/04/12 07:18:52;;;;;;;;;8.00;6.25;;;;;14.64;55.51;99915.00;5075484;27;45430;-65
2022/04/12 07:21:21;;;;;;;;;6.25;6.25;;;;;14.66;55.20;99908.63;5076052;27;45453;-64
2022/04/12 07:23:49;;;;;;;;;5.50;5.50;;;;;14.66;55.22;99919.22;5075695;27;45191;-63
2022/04/12 07:26:15;;;;;;;;;5.00;5.00;;;;;14.69;55.20;99923.47;5074826;27;45618;-66
2022/04/12 07:28:40;;;;;;;;;6.50;6.25;;;;;14.66;54.86;99910.44;5075262;27;45393;-69
2022/04/12 07:31:05;;;;;;;;;6.00;6.00;;;;;14.71;54.77;99903.06;5073718;27;45529;-63
2022/04/12 07:33:31;;;;;;;;;9.50;8.25;;;;;14.74;55.03;99913.44;5076388;27;45441;-63
2022/04/12 07:35:56;;;;;;;;;6.75;5.25;;;;;14.75;54.60;99915.13;5075026;27;46477;-61
2022/04/12 07:38:21;;;;;;;;;12.00;9.00;;;;;14.80;54.52;99914.81;5073780;27;45701;-62
2022/04/12 07:40:47;;;;;;;;;8.00;6.00;;;;;14.86;54.60;99915.25;5075915;27;45443;-64
2022/04/12 07:43:12;;;;;;;;;11.00;7.00;;;;;14.85;54.24;99896.84;5074713;27;45462;-64
2022/04/12 07:45:38;;;;;;;;;5.25;5.00;;;;;15.01;54.02;99909.84;5076240;27;45869;-62
2022/04/12 07:48:03;;;;;;;;;9.25;6.50;;;;;15.10;53.63;99916.31;5075973;27;45521;-63
2022/04/12 07:50:29;;;;;;;;;8.75;8.00;;;;;15.18;53.92;99921.91;5075760;27;45403;-61
2022/04/12 07:52:54;;;;;;;;;8.00;8.00;;;;;15.24;53.40;99913.53;5076271;27;45635;-62
2022/04/12 07:55:19;;;;;;;;;9.25;9.25;;;;;15.30;53.29;99915.75;5076120;27;45355;-62
2022/04/12 07:57:45;;;;;;;;;6.75;6.50;;;;;15.40;53.74;99917.75;5076001;27;45381;-64
2022/04/12 08:00:11;;;;;;;;;9.25;7.00;;;;;15.47;53.21;99919.00;5075945;27;45292;-62
2022/04/12 08:02:36;;;;;;;;;9.00;6.00;;;;;15.56;53.11;99918.34;5076563;27;45365;-62
2022/04/12 08:05:01;;;;;;;;;7.00;7.00;;;;;15.72;52.78;99909.28;5075573;27;45421;-63
2022/04/12 08:07:27;;;;;;;;;7.00;6.50;;;;;15.86;52.51;99910.94;5075607;27;45381;-65
2022/04/12 08:09:52;;;;;;;;;8.50;7.00;;;;;15.99;52.30;99898.50;5075967;27;45467;-63
2022/04/12 08:12:18;;;;;;;;;9.50;8.25;;;;;16.13;52.05;99901.91;5075875;27;45414;-62
2022/04/12 08:14:43;;;;;;;;;6.25;5.25;;;;;16.18;51.51;99883.84;5076156;27;45474;-63
2022/04/12 08:17:08;;;;;;;;;4.50;4.50;;;;;16.36;51.34;99903.69;5076560;27;45408;-61
2022/04/12 08:19:34;;;;;;;;;5.25;5.25;;;;;16.43;51.53;99898.78;5076233;27;45451;-64
2022/04/12 08:22:01;;;;;;;;;9.75;6.25;;;;;16.53;51.07;99893.63;5092218;27;45611;-63
2022/04/12 08:24:26;;;;;;;;;6.50;6.00;;;;;16.64;50.79;99903.41;5075754;27;46657;-60
2022/04/12 08:26:52;;;;;;;;;11.00;9.50;;;;;16.74;51.08;99917.66;5075666;27;45308;-62
2022/04/12 08:29:17;;;;;;;;;10.50;8.00;;;;;16.87;50.51;99909.63;5076092;27;45320;-65
2022/04/12 08:31:42;;;;;;;;;10.50;8.50;;;;;16.94;50.23;99908.16;5076054;27;45491;-64
2022/04/12 08:34:08;;;;;;;;;11.00;7.00;;;;;17.03;50.26;99914.63;5076166;27;45601;-61
2022/04/12 08:36:33;;;;;;;;;6.00;6.00;;;;;17.11;49.45;99910.50;5075866;27;45228;-63
2022/04/12 08:38:59;;;;;;;;;7.25;7.25;;;;;17.19;49.95;99905.44;5075964;27;45440;-63
2022/04/12 08:41:26;;;;;;;;;3.00;3.00;;;;;17.25;49.36;99902.28;5076112;27;45460;-63
2022/04/12 08:43:56;;;;;;;;;12.00;6.00;;;;;17.38;48.80;99895.03;5075417;27;47076;-61
2022/04/12 08:46:27;;;;;;;;;8.50;7.25;;;;;17.49;48.91;99906.63;5075227;27;45451;-63
2022/04/12 08:48:54;;;;;;;;;6.25;5.00;;;;;17.60;48.66;99908.44;5074442;28;45424;-62
2022/04/12 08:51:21;;;;;;;;;6.00;6.00;;;;;17.65;48.02;99901.75;5075870;27;45329;-62
2022/04/12 08:53:46;;;;;;;;;3.75;3.75;;;;;17.73;47.34;99908.25;5091033;27;46730;-62
2022/04/12 08:56:12;;;;;;;;;6.00;4.25;;;;;17.79;46.95;99908.63;5075699;27;45443;-64
2022/04/12 08:58:37;;;;;;;;;3.50;3.50;;;;;17.81;47.11;99909.34;5075747;27;45288;-61
2022/04/12 09:01:03;;;;;;;;;5.75;4.50;;;;;17.89;46.81;99905.22;5075646;27;45593;-64
2022/04/12 09:03:28;;;;;;;;;8.50;7.00;;;;;18.03;47.14;99910.25;5075305;27;45611;-64
2022/04/12 09:05:54;;;;;;;;;2.75;1.00;;;;;18.08;46.30;99901.91;5075313;27;45307;-61
2022/04/12 09:08:24;;;;;;;;;4.00;4.00;;;;;18.09;46.31;99901.78;5075484;27;45805;-62
2022/04/12 09:10:57;;;;;;;;;5.00;4.00;;;;;18.18;46.57;99902.84;5075688;27;45409;-62
2022/04/12 09:13:22;;;;;;;;;5.50;4.00;;;;;18.31;46.45;99901.81;5075233;27;46444;-62
2022/04/12 09:15:48;;;;;;;;;5.00;4.00;;;;;18.47;46.38;99896.88;5075180;28;45465;-63
2022/04/12 09:18:13;;;;;;;;;5.00;4.50;;;;;18.61;45.56;99890.41;5075745;27;45456;-64
2022/04/12 09:20:41;;;;;;;;;5.00;5.00;;;;;18.78;45.64;99893.44;5075068;27;45559;-64
2022/04/12 09:23:24;;;;;;;;;10.00;8.50;;;;;18.90;45.12;99889.69;5074058;27;46372;-62
2022/04/12 09:25:54;;;;;;;;;12.00;11.25;;;;;19.03;45.04;99894.81;5074965;27;45362;-63
2022/04/12 09:28:20;;;;;;;;;5.00;5.00;;;;;19.15;44.85;99897.44;5090448;27;45860;-63
2022/04/12 09:30:45;;;;;;;;;6.75;6.00;;;;;19.20;43.57;99892.53;5075319;27;45658;-62
2022/04/12 09:33:10;;;;;;;;;8.50;8.00;;;;;19.39;44.10;99891.75;5074798;27;46064;-64
2022/04/12 09:35:37;;;;;;;;;5.75;4.00;;;;;19.49;44.10;99889.94;5074941;27;45374;-62
2022/04/12 09:38:03;;;;;;;;;8.75;5.75;;;;;19.54;43.85;99892.22;5074985;27;45666;-64
2022/04/12 09:40:28;;;;;;;;;1.75;1.75;;;;;19.62;43.25;99880.88;5074903;27;45417;-62
2022/04/12 09:42:57;;;;;;;;;5.00;5.00;;;;;19.64;43.04;99884.25;5074540;27;45412;-64
2022/04/12 09:45:22;;;;;;;;;4.25;4.25;;;;;19.68;43.15;99874.97;5074611;27;45307;-63
2022/04/12 09:47:49;;;;;;;;;5.50;3.00;;;;;19.76;42.98;99882.28;5074857;27;45201;-62
2022/04/12 09:50:15;;;;;;;;;2.75;1.00;;;;;19.84;42.72;99877.94;5075218;28;45634;-62
2022/04/12 09:52:53;;;;;;;;;4.75;1.75;;;;;19.87;43.33;99875.97;5089677;27;47190;-63
2022/04/12 09:55:41;;;;;;;;;7.25;7.00;;;;;19.99;42.92;99866.88;5090273;27;45574;-62
2022/04/12 09:58:15;;;;;;;;;5.75;5.00;;;;;20.08;42.47;99875.84;5075195;27;45397;-62
2022/04/12 10:00:42;;;;;;;;;4.50;3.00;;;;;20.02;42.73;99860.41;5073606;27;45512;-61
2022/04/12 10:03:10;;;;;;;;;4.00;3.25;;;;;20.14;42.09;99877.97;5075008;27;45526;-61
2022/04/12 10:05:36;;;;;;;;;7.25;7.25;;;;;20.17;42.24;99887.53;5074911;27;45355;-64
2022/04/12 10:08:04;;;;;;;;;4.50;3.75;;;;;20.22;42.47;99887.94;5074736;27;45293;-62
2022/04/12 10:10:30;;;;;;;;;2.00;2.00;;;;;20.28;42.01;99872.22;5074594;27;45607;-63
2022/04/12 10:12:57;;;;;;;;;5.25;3.25;;;;;20.33;42.03;99884.28;5073874;27;45448;-66
2022/04/12 10:15:24;;;;;;;;;2.25;1.50;;;;;20.41;41.42;99877.25;5073917;27;45324;-64
2022/04/12 10:17:50;;;;;;;;;4.50;3.00;;;;;20.42;41.83;99865.56;5074037;27;45237;-66
2022/04/12 10:20:18;;;;;;;;;3.00;2.75;;;;;20.40;42.03;99867.53;5074642;27;45474;-65
2022/04/12 10:22:44;;;;;;;;;2.00;2.00;;;;;20.46;41.75;99854.59;5074078;27;46197;-65
2022/04/12 10:25:11;;;;;;;;;2.75;1.00;;;;;20.51;42.13;99844.31;5073841;27;45385;-66
2022/04/12 10:27:38;;;;;;;;;6.50;3.50;;;;;20.64;41.96;99844.84;5074130;27;45431;-65
2022/04/12 10:30:16;;;;;;;;;6.50;5.00;;;;;20.80;42.01;99840.78;5073945;27;45613;-65
2022/04/12 10:33:01;;;;;;;;;4.75;3.25;;;;;20.92;41.02;99841.41;5074290;27;46568;-63
2022/04/12 10:35:54;;;;;;;;;3.75;2.50;;;;;20.88;41.47;99843.56;5092917;27;45350;-66
2022/04/12 10:38:24;;;;;;;;;5.00;3.75;;;;;20.86;41.25;99849.03;5077293;27;45222;-66
2022/04/12 10:40:52;;;;;;;;;5.00;3.75;;;;;20.91;41.30;99837.91;5077786;27;45461;-64
2022/04/12 10:43:33;;;;;;;;;3.50;3.50;;;;;20.86;41.28;99832.16;5077747;27;45382;-63
2022/04/12 10:46:01;;;;;;;;;7.50;4.50;;;;;20.78;41.66;99848.91;5077313;27;45439;-64
2022/04/12 10:48:31;;;;;;;;;6.00;3.00;;;;;20.71;41.62;99856.66;5077656;27;45475;-63
2022/04/12 10:51:00;;;;;;;;;2.00;2.00;;;;;20.84;41.73;99859.03;5077520;27;45532;-64
2022/04/12 10:53:38;;;;;;;;;5.50;3.00;;;;;21.12;41.62;99868.91;5075467;27;47192;-67
2022/04/12 10:56:10;;;;;;;;;4.50;1.75;;;;;21.45;41.41;99866.63;5092961;27;45310;-63
2022/04/12 10:58:36;;;;;;;;;7.00;5.00;;;;;21.77;40.80;99865.34;5092770;27;45457;-61
2022/04/12 11:01:04;;;;;;;;;7.50;4.00;;;;;21.95;39.95;99865.31;5077457;27;45492;-64
2022/04/12 11:03:41;;;;;;;;;2.50;2.00;;;;;22.06;39.93;99866.06;5076753;27;45526;-62
2022/04/12 11:06:23;;;;;;;;;3.00;3.00;;;;;22.04;40.40;99872.44;5076399;27;45244;-64
2022/04/12 11:08:51;;;;;;;;;3.75;3.75;;;;;22.11;40.27;99879.84;5077205;27;45310;-62
2022/04/12 11:11:17;;;;;;;;;4.50;3.00;;;;;22.17;40.38;99889.94;5077039;27;45222;-65
2022/04/12 11:13:44;;;;;;;;;5.00;3.00;;;;;22.17;39.77;99895.28;5076506;27;45416;-63
2022/04/12 11:16:12;;;;;;;;;5.75;3.50;;;;;22.14;39.35;99887.56;5076670;27;45366;-65
2022/04/12 11:18:57;;;;;;;;;5.00;5.00;;;;;22.12;39.91;99908.31;5076813;27;45331;-62
2022/04/12 11:21:24;;;;;;;;;2.75;2.75;;;;;22.12;39.15;99905.63;5077139;27;45461;-64
2022/04/12 11:23:56;;;;;;;;;4.75;4.75;;;;;22.02;39.54;99914.59;5077225;27;45730;-67
2022/04/12 11:26:44;;;;;;;;;3.00;2.25;;;;;21.90;40.11;99894.38;5076796;27;45342;-64
2022/04/12 11:29:09;;;;;;;;;3.00;3.00;;;;;21.97;39.91;99905.34;5076791;27;45396;-63
2022/04/12 11:31:47;;;;;;;;;3.00;3.00;;;;;21.92;40.02;99903.09;5076706;27;45781;-63